Terminal Aerodrome Forecast
Issued by NWS

Current Version | Previous Version | Graphics & Text | Print | Product List | Glossary On
Versions: 1 2 3 4 5 6 7 8 9 10 11 12 13 14 15 16 17 18 19 20 21 22 23 24 25 26 27 28 29 30 31 32 33
000
FTUS41 KRNK 261201 AAA
TAFLWB
TAF AMD
KLWB 261201Z 2612/2712 03003KT 5SM -SN SCT015 OVC040
      TEMPO 2612/2614 6SM -SN BKN015
     FM261400 08004KT P6SM -SN OVC020
     FM261800 26003KT 5SM BR OVC007
     FM270100 31003KT 4SM BR OVC015=

USA.gov is the U.S. government's official web portal to all federal, state and local government web resources and services.